sensor_id;sensor_type;location;lat;lon;timestamp;P1;durP1;ratioP1;P2;durP2;ratioP2
15706;SDS011;7953;54.302;10.128;2022-12-07T00:01:56;13.57;;;9.90;;
15706;SDS011;7953;54.302;10.128;2022-12-07T00:05:09;18.57;;;10.87;;
15706;SDS011;7953;54.302;10.128;2022-12-07T00:07:52;15.73;;;11.07;;
15706;SDS011;7953;54.302;10.128;2022-12-07T00:10:46;13.87;;;10.03;;
15706;SDS011;7953;54.302;10.128;2022-12-07T00:13:42;11.50;;;9.80;;
15706;SDS011;7953;54.302;10.128;2022-12-07T00:16:40;15.40;;;9.90;;
15706;SDS011;7953;54.302;10.128;2022-12-07T00:19:35;12.17;;;9.53;;
15706;SDS011;7953;54.302;10.128;2022-12-07T00:22:24;13.10;;;10.07;;
15706;SDS011;7953;54.302;10.128;2022-12-07T00:25:04;12.07;;;8.90;;
15706;SDS011;7953;54.302;10.128;2022-12-07T00:30:22;13.33;;;10.17;;
15706;SDS011;7953;54.302;10.128;2022-12-07T00:33:09;12.90;;;10.20;;
15706;SDS011;7953;54.302;10.128;2022-12-07T00:35:45;17.70;;;10.60;;
15706;SDS011;7953;54.302;10.128;2022-12-07T00:38:14;15.20;;;11.00;;
15706;SDS011;7953;54.302;10.128;2022-12-07T00:44:11;15.10;;;11.10;;
15706;SDS011;7953;54.302;10.128;2022-12-07T00:47:02;16.17;;;11.60;;
15706;SDS011;7953;54.302;10.128;2022-12-07T00:49:30;13.07;;;10.57;;
15706;SDS011;7953;54.302;10.128;2022-12-07T00:51:57;14.57;;;10.67;;
15706;SDS011;7953;54.302;10.128;2022-12-07T00:54:24;14.80;;;10.97;;
15706;SDS011;7953;54.302;10.128;2022-12-07T00:56:51;14.23;;;10.87;;
15706;SDS011;7953;54.302;10.128;2022-12-07T00:59:20;14.63;;;10.70;;
15706;SDS011;7953;54.302;10.128;2022-12-07T01:01:50;12.90;;;10.20;;
15706;SDS011;7953;54.302;10.128;2022-12-07T01:04:24;12.60;;;9.60;;
15706;SDS011;7953;54.302;10.128;2022-12-07T01:10:14;13.03;;;9.27;;
15706;SDS011;7953;54.302;10.128;2022-12-07T01:12:56;14.60;;;10.40;;
15706;SDS011;7953;54.302;10.128;2022-12-07T01:15:25;14.10;;;9.80;;
15706;SDS011;7953;54.302;10.128;2022-12-07T01:17:53;11.17;;;9.33;;
15706;SDS011;7953;54.302;10.128;2022-12-07T01:20:23;10.17;;;8.30;;
15706;SDS011;7953;54.302;10.128;2022-12-07T01:23:07;10.97;;;8.07;;
15706;SDS011;7953;54.302;10.128;2022-12-07T01:25:43;12.50;;;8.27;;
15706;SDS011;7953;54.302;10.128;2022-12-07T01:28:10;11.10;;;8.87;;
15706;SDS011;7953;54.302;10.128;2022-12-07T01:30:44;11.63;;;7.77;;
15706;SDS011;7953;54.302;10.128;2022-12-07T01:33:20;12.10;;;8.53;;
15706;SDS011;7953;54.302;10.128;2022-12-07T01:35:47;9.67;;;7.10;;
15706;SDS011;7953;54.302;10.128;2022-12-07T01:38:14;8.77;;;6.40;;
15706;SDS011;7953;54.302;10.128;2022-12-07T01:40:41;8.63;;;6.10;;
15706;SDS011;7953;54.302;10.128;2022-12-07T01:43:09;6.67;;;5.90;;
15706;SDS011;7953;54.302;10.128;2022-12-07T01:45:43;9.73;;;6.80;;
15706;SDS011;7953;54.302;10.128;2022-12-07T01:48:11;8.43;;;6.10;;
15706;SDS011;7953;54.302;10.128;2022-12-07T01:50:40;9.50;;;6.00;;
15706;SDS011;7953;54.302;10.128;2022-12-07T01:53:09;11.20;;;6.23;;
15706;SDS011;7953;54.302;10.128;2022-12-07T01:55:37;8.93;;;5.40;;
15706;SDS011;7953;54.302;10.128;2022-12-07T01:58:07;9.30;;;5.63;;
15706;SDS011;7953;54.302;10.128;2022-12-07T02:00:35;8.73;;;5.13;;
15706;SDS011;7953;54.302;10.128;2022-12-07T02:03:05;8.20;;;5.73;;
15706;SDS011;7953;54.302;10.128;2022-12-07T02:05:35;8.30;;;5.83;;
15706;SDS011;7953;54.302;10.128;2022-12-07T02:08:06;9.20;;;6.10;;
15706;SDS011;7953;54.302;10.128;2022-12-07T02:10:34;8.33;;;6.53;;
15706;SDS011;7953;54.302;10.128;2022-12-07T02:13:05;11.17;;;7.07;;
15706;SDS011;7953;54.302;10.128;2022-12-07T02:15:43;10.43;;;8.10;;
15706;SDS011;7953;54.302;10.128;2022-12-07T02:18:24;10.33;;;8.27;;
15706;SDS011;7953;54.302;10.128;2022-12-07T02:20:58;14.67;;;9.23;;
15706;SDS011;7953;54.302;10.128;2022-12-07T02:23:40;15.47;;;10.00;;
15706;SDS011;7953;54.302;10.128;2022-12-07T02:29:12;16.07;;;12.37;;
15706;SDS011;7953;54.302;10.128;2022-12-07T02:31:44;17.73;;;11.87;;
15706;SDS011;7953;54.302;10.128;2022-12-07T02:34:18;16.93;;;11.77;;
15706;SDS011;7953;54.302;10.128;2022-12-07T02:36:51;18.93;;;13.40;;
15706;SDS011;7953;54.302;10.128;2022-12-07T02:39:27;17.73;;;12.93;;
15706;SDS011;7953;54.302;10.128;2022-12-07T02:42:01;15.50;;;12.37;;
15706;SDS011;7953;54.302;10.128;2022-12-07T02:44:35;18.17;;;13.20;;
15706;SDS011;7953;54.302;10.128;2022-12-07T02:47:03;19.60;;;12.83;;
15706;SDS011;7953;54.302;10.128;2022-12-07T02:49:35;21.13;;;12.73;;
15706;SDS011;7953;54.302;10.128;2022-12-07T02:52:04;19.70;;;13.30;;
15706;SDS011;7953;54.302;10.128;2022-12-07T02:54:31;18.77;;;12.10;;
15706;SDS011;7953;54.302;10.128;2022-12-07T02:57:05;19.27;;;12.73;;
15706;SDS011;7953;54.302;10.128;2022-12-07T02:59:45;18.43;;;11.70;;
15706;SDS011;7953;54.302;10.128;2022-12-07T03:02:23;18.47;;;12.97;;
15706;SDS011;7953;54.302;10.128;2022-12-07T03:04:57;16.00;;;12.53;;
15706;SDS011;7953;54.302;10.128;2022-12-07T03:07:35;16.30;;;11.87;;
15706;SDS011;7953;54.302;10.128;2022-12-07T03:10:12;17.40;;;11.93;;
15706;SDS011;7953;54.302;10.128;2022-12-07T03:12:46;18.50;;;12.33;;
15706;SDS011;7953;54.302;10.128;2022-12-07T03:15:26;16.03;;;11.50;;
15706;SDS011;7953;54.302;10.128;2022-12-07T03:17:55;15.37;;;10.97;;
15706;SDS011;7953;54.302;10.128;2022-12-07T03:20:25;18.10;;;12.27;;
15706;SDS011;7953;54.302;10.128;2022-12-07T03:22:53;17.40;;;11.90;;
15706;SDS011;7953;54.302;10.128;2022-12-07T03:25:21;13.97;;;10.77;;
15706;SDS011;7953;54.302;10.128;2022-12-07T03:27:49;16.27;;;11.57;;
15706;SDS011;7953;54.302;10.128;2022-12-07T03:30:22;15.37;;;10.47;;
15706;SDS011;7953;54.302;10.128;2022-12-07T03:32:54;17.07;;;11.03;;
15706;SDS011;7953;54.302;10.128;2022-12-07T03:35:28;15.10;;;11.33;;
15706;SDS011;7953;54.302;10.128;2022-12-07T03:38:00;15.50;;;11.60;;
15706;SDS011;7953;54.302;10.128;2022-12-07T03:40:32;17.00;;;12.07;;
15706;SDS011;7953;54.302;10.128;2022-12-07T03:43:03;16.57;;;11.73;;
15706;SDS011;7953;54.302;10.128;2022-12-07T03:45:31;19.97;;;13.23;;
15706;SDS011;7953;54.302;10.128;2022-12-07T03:48:07;17.17;;;12.23;;
15706;SDS011;7953;54.302;10.128;2022-12-07T03:50:41;14.73;;;11.33;;
15706;SDS011;7953;54.302;10.128;2022-12-07T03:53:13;15.77;;;11.43;;
15706;SDS011;7953;54.302;10.128;2022-12-07T03:55:44;15.73;;;11.43;;
15706;SDS011;7953;54.302;10.128;2022-12-07T03:58:14;15.40;;;11.27;;
15706;SDS011;7953;54.302;10.128;2022-12-07T04:00:44;14.27;;;10.80;;
15706;SDS011;7953;54.302;10.128;2022-12-07T04:03:15;14.77;;;10.00;;
15706;SDS011;7953;54.302;10.128;2022-12-07T04:05:43;15.17;;;10.43;;
15706;SDS011;7953;54.302;10.128;2022-12-07T04:08:12;14.70;;;10.53;;
15706;SDS011;7953;54.302;10.128;2022-12-07T04:10:39;13.63;;;10.37;;
15706;SDS011;7953;54.302;10.128;2022-12-07T04:13:06;16.43;;;10.97;;
15706;SDS011;7953;54.302;10.128;2022-12-07T04:15:33;15.63;;;10.93;;
15706;SDS011;7953;54.302;10.128;2022-12-07T04:18:00;16.40;;;11.43;;
15706;SDS011;7953;54.302;10.128;2022-12-07T04:20:28;16.53;;;11.07;;
15706;SDS011;7953;54.302;10.128;2022-12-07T04:22:55;15.47;;;11.50;;
15706;SDS011;7953;54.302;10.128;2022-12-07T04:25:22;15.13;;;10.80;;
15706;SDS011;7953;54.302;10.128;2022-12-07T04:27:48;17.93;;;10.90;;
15706;SDS011;7953;54.302;10.128;2022-12-07T04:30:15;14.50;;;11.53;;
15706;SDS011;7953;54.302;10.128;2022-12-07T04:32:43;16.73;;;11.53;;
15706;SDS011;7953;54.302;10.128;2022-12-07T04:35:10;21.67;;;14.07;;
15706;SDS011;7953;54.302;10.128;2022-12-07T04:37:38;23.67;;;14.70;;
15706;SDS011;7953;54.302;10.128;2022-12-07T04:40:05;21.53;;;13.47;;
15706;SDS011;7953;54.302;10.128;2022-12-07T04:42:36;15.60;;;11.23;;
15706;SDS011;7953;54.302;10.128;2022-12-07T04:45:03;17.73;;;11.57;;
15706;SDS011;7953;54.302;10.128;2022-12-07T04:47:30;17.43;;;11.83;;
15706;SDS011;7953;54.302;10.128;2022-12-07T04:49:57;17.47;;;12.50;;
15706;SDS011;7953;54.302;10.128;2022-12-07T04:52:24;16.20;;;11.60;;
15706;SDS011;7953;54.302;10.128;2022-12-07T04:54:53;16.73;;;12.00;;
15706;SDS011;7953;54.302;10.128;2022-12-07T04:57:20;21.60;;;16.10;;
15706;SDS011;7953;54.302;10.128;2022-12-07T04:59:46;19.67;;;12.10;;
15706;SDS011;7953;54.302;10.128;2022-12-07T05:02:13;17.93;;;12.73;;
15706;SDS011;7953;54.302;10.128;2022-12-07T05:04:40;19.30;;;13.23;;
15706;SDS011;7953;54.302;10.128;2022-12-07T05:07:07;19.30;;;13.07;;
15706;SDS011;7953;54.302;10.128;2022-12-07T05:09:34;21.87;;;14.10;;
15706;SDS011;7953;54.302;10.128;2022-12-07T05:12:02;21.90;;;14.93;;
15706;SDS011;7953;54.302;10.128;2022-12-07T05:14:29;17.80;;;12.27;;
15706;SDS011;7953;54.302;10.128;2022-12-07T05:16:56;17.07;;;11.87;;
15706;SDS011;7953;54.302;10.128;2022-12-07T05:19:23;16.73;;;12.30;;
15706;SDS011;7953;54.302;10.128;2022-12-07T05:21:51;16.63;;;11.20;;
15706;SDS011;7953;54.302;10.128;2022-12-07T05:24:18;16.17;;;11.23;;
15706;SDS011;7953;54.302;10.128;2022-12-07T05:26:45;19.30;;;14.60;;
15706;SDS011;7953;54.302;10.128;2022-12-07T05:29:14;19.23;;;12.23;;
15706;SDS011;7953;54.302;10.128;2022-12-07T05:31:42;15.00;;;11.50;;
15706;SDS011;7953;54.302;10.128;2022-12-07T05:34:09;18.97;;;12.13;;
15706;SDS011;7953;54.302;10.128;2022-12-07T05:36:36;18.53;;;11.13;;
15706;SDS011;7953;54.302;10.128;2022-12-07T05:39:03;16.83;;;11.03;;
15706;SDS011;7953;54.302;10.128;2022-12-07T05:41:30;15.23;;;10.67;;
15706;SDS011;7953;54.302;10.128;2022-12-07T05:44:16;15.97;;;11.63;;
15706;SDS011;7953;54.302;10.128;2022-12-07T05:46:43;15.67;;;10.57;;
15706;SDS011;7953;54.302;10.128;2022-12-07T05:49:10;15.30;;;10.73;;
15706;SDS011;7953;54.302;10.128;2022-12-07T05:51:36;15.33;;;9.93;;
15706;SDS011;7953;54.302;10.128;2022-12-07T05:54:03;16.13;;;10.07;;
15706;SDS011;7953;54.302;10.128;2022-12-07T05:56:30;17.37;;;12.37;;
15706;SDS011;7953;54.302;10.128;2022-12-07T05:58:57;16.80;;;10.53;;
15706;SDS011;7953;54.302;10.128;2022-12-07T06:01:43;14.37;;;9.10;;
15706;SDS011;7953;54.302;10.128;2022-12-07T06:04:10;13.23;;;9.53;;
15706;SDS011;7953;54.302;10.128;2022-12-07T06:06:37;14.33;;;9.30;;
15706;SDS011;7953;54.302;10.128;2022-12-07T06:09:07;15.70;;;10.27;;
15706;SDS011;7953;54.302;10.128;2022-12-07T06:11:34;16.00;;;9.70;;
15706;SDS011;7953;54.302;10.128;2022-12-07T06:14:24;15.33;;;9.53;;
15706;SDS011;7953;54.302;10.128;2022-12-07T06:16:55;14.40;;;9.43;;
15706;SDS011;7953;54.302;10.128;2022-12-07T06:19:22;15.10;;;10.03;;
15706;SDS011;7953;54.302;10.128;2022-12-07T06:21:52;12.53;;;8.67;;
15706;SDS011;7953;54.302;10.128;2022-12-07T06:24:19;12.80;;;8.70;;
15706;SDS011;7953;54.302;10.128;2022-12-07T06:26:46;14.50;;;8.73;;
15706;SDS011;7953;54.302;10.128;2022-12-07T06:29:13;13.37;;;8.53;;
15706;SDS011;7953;54.302;10.128;2022-12-07T06:31:41;13.13;;;9.07;;
15706;SDS011;7953;54.302;10.128;2022-12-07T06:34:10;10.47;;;8.47;;
15706;SDS011;7953;54.302;10.128;2022-12-07T06:36:38;13.60;;;8.93;;
15706;SDS011;7953;54.302;10.128;2022-12-07T06:39:05;11.93;;;8.70;;
15706;SDS011;7953;54.302;10.128;2022-12-07T06:41:34;15.37;;;9.30;;
15706;SDS011;7953;54.302;10.128;2022-12-07T06:44:01;11.50;;;7.87;;
15706;SDS011;7953;54.302;10.128;2022-12-07T06:46:28;11.60;;;7.20;;
15706;SDS011;7953;54.302;10.128;2022-12-07T06:49:00;11.40;;;8.27;;
15706;SDS011;7953;54.302;10.128;2022-12-07T06:51:28;14.17;;;8.10;;
15706;SDS011;7953;54.302;10.128;2022-12-07T06:53:55;13.43;;;8.43;;
15706;SDS011;7953;54.302;10.128;2022-12-07T06:56:22;13.20;;;8.53;;
15706;SDS011;7953;54.302;10.128;2022-12-07T06:58:49;9.63;;;6.73;;
15706;SDS011;7953;54.302;10.128;2022-12-07T07:01:17;11.00;;;7.77;;
15706;SDS011;7953;54.302;10.128;2022-12-07T07:03:45;10.40;;;7.67;;
15706;SDS011;7953;54.302;10.128;2022-12-07T07:06:15;12.07;;;7.40;;
15706;SDS011;7953;54.302;10.128;2022-12-07T07:08:45;11.73;;;7.50;;
15706;SDS011;7953;54.302;10.128;2022-12-07T07:11:12;10.80;;;7.83;;
15706;SDS011;7953;54.302;10.128;2022-12-07T07:13:47;9.70;;;6.80;;
15706;SDS011;7953;54.302;10.128;2022-12-07T07:16:27;12.30;;;7.50;;
15706;SDS011;7953;54.302;10.128;2022-12-07T07:18:55;13.70;;;8.03;;
15706;SDS011;7953;54.302;10.128;2022-12-07T07:21:22;9.70;;;5.87;;
15706;SDS011;7953;54.302;10.128;2022-12-07T07:23:53;10.90;;;7.17;;
15706;SDS011;7953;54.302;10.128;2022-12-07T07:26:21;12.93;;;7.47;;
15706;SDS011;7953;54.302;10.128;2022-12-07T07:28:50;9.33;;;6.70;;
15706;SDS011;7953;54.302;10.128;2022-12-07T07:31:17;12.67;;;6.33;;
15706;SDS011;7953;54.302;10.128;2022-12-07T07:33:47;13.93;;;6.87;;
15706;SDS011;7953;54.302;10.128;2022-12-07T07:36:14;7.70;;;5.80;;
15706;SDS011;7953;54.302;10.128;2022-12-07T07:38:41;11.07;;;6.43;;
15706;SDS011;7953;54.302;10.128;2022-12-07T07:41:12;10.07;;;6.73;;
15706;SDS011;7953;54.302;10.128;2022-12-07T07:43:39;12.40;;;7.47;;
15706;SDS011;7953;54.302;10.128;2022-12-07T07:46:13;11.23;;;6.80;;
15706;SDS011;7953;54.302;10.128;2022-12-07T07:48:40;10.33;;;6.13;;
15706;SDS011;7953;54.302;10.128;2022-12-07T07:51:07;13.37;;;7.27;;
15706;SDS011;7953;54.302;10.128;2022-12-07T07:53:35;9.80;;;6.83;;
15706;SDS011;7953;54.302;10.128;2022-12-07T07:56:04;10.97;;;6.23;;
15706;SDS011;7953;54.302;10.128;2022-12-07T07:58:34;10.70;;;6.13;;
15706;SDS011;7953;54.302;10.128;2022-12-07T08:01:03;9.23;;;5.47;;
15706;SDS011;7953;54.302;10.128;2022-12-07T08:03:30;7.50;;;5.17;;
15706;SDS011;7953;54.302;10.128;2022-12-07T08:05:57;8.93;;;5.80;;
15706;SDS011;7953;54.302;10.128;2022-12-07T08:08:24;10.93;;;5.60;;
15706;SDS011;7953;54.302;10.128;2022-12-07T08:10:51;9.53;;;5.87;;
15706;SDS011;7953;54.302;10.128;2022-12-07T08:13:24;8.93;;;5.47;;
15706;SDS011;7953;54.302;10.128;2022-12-07T08:15:55;9.97;;;5.73;;
15706;SDS011;7953;54.302;10.128;2022-12-07T08:18:22;9.47;;;5.00;;
15706;SDS011;7953;54.302;10.128;2022-12-07T08:20:52;8.30;;;4.87;;
15706;SDS011;7953;54.302;10.128;2022-12-07T08:23:26;8.83;;;4.60;;
15706;SDS011;7953;54.302;10.128;2022-12-07T08:25:52;7.43;;;4.70;;
15706;SDS011;7953;54.302;10.128;2022-12-07T08:28:19;6.83;;;5.07;;
15706;SDS011;7953;54.302;10.128;2022-12-07T08:30:50;12.17;;;5.30;;
15706;SDS011;7953;54.302;10.128;2022-12-07T08:33:18;11.63;;;5.60;;
15706;SDS011;7953;54.302;10.128;2022-12-07T08:35:50;13.50;;;5.23;;
15706;SDS011;7953;54.302;10.128;2022-12-07T08:38:17;7.47;;;4.57;;
15706;SDS011;7953;54.302;10.128;2022-12-07T08:40:44;15.20;;;5.00;;
15706;SDS011;7953;54.302;10.128;2022-12-07T08:43:11;10.03;;;4.77;;
15706;SDS011;7953;54.302;10.128;2022-12-07T08:45:38;6.93;;;4.33;;
15706;SDS011;7953;54.302;10.128;2022-12-07T08:48:07;8.30;;;4.20;;
15706;SDS011;7953;54.302;10.128;2022-12-07T08:50:43;12.00;;;4.27;;
15706;SDS011;7953;54.302;10.128;2022-12-07T08:53:12;8.90;;;4.37;;
15706;SDS011;7953;54.302;10.128;2022-12-07T08:55:40;6.57;;;3.40;;
15706;SDS011;7953;54.302;10.128;2022-12-07T08:58:10;8.37;;;4.47;;
15706;SDS011;7953;54.302;10.128;2022-12-07T09:00:37;5.63;;;3.60;;
15706;SDS011;7953;54.302;10.128;2022-12-07T09:03:05;8.27;;;4.23;;
15706;SDS011;7953;54.302;10.128;2022-12-07T09:05:34;7.67;;;3.63;;
15706;SDS011;7953;54.302;10.128;2022-12-07T09:08:07;10.27;;;4.00;;
15706;SDS011;7953;54.302;10.128;2022-12-07T09:10:41;5.57;;;3.37;;
15706;SDS011;7953;54.302;10.128;2022-12-07T09:13:08;6.63;;;3.77;;
15706;SDS011;7953;54.302;10.128;2022-12-07T09:15:35;8.13;;;2.90;;
15706;SDS011;7953;54.302;10.128;2022-12-07T09:18:05;7.03;;;3.43;;
15706;SDS011;7953;54.302;10.128;2022-12-07T09:20:35;7.70;;;2.53;;
15706;SDS011;7953;54.302;10.128;2022-12-07T09:23:03;4.60;;;2.40;;
15706;SDS011;7953;54.302;10.128;2022-12-07T09:25:31;5.50;;;2.93;;
15706;SDS011;7953;54.302;10.128;2022-12-07T09:27:58;3.83;;;2.47;;
15706;SDS011;7953;54.302;10.128;2022-12-07T09:31:07;5.27;;;2.37;;
15706;SDS011;7953;54.302;10.128;2022-12-07T09:33:22;7.13;;;2.13;;
15706;SDS011;7953;54.302;10.128;2022-12-07T09:35:49;4.37;;;1.70;;
15706;SDS011;7953;54.302;10.128;2022-12-07T09:38:30;4.47;;;2.07;;
15706;SDS011;7953;54.302;10.128;2022-12-07T09:40:57;3.30;;;1.70;;
15706;SDS011;7953;54.302;10.128;2022-12-07T09:43:30;5.40;;;2.17;;
15706;SDS011;7953;54.302;10.128;2022-12-07T09:46:01;3.10;;;1.90;;
15706;SDS011;7953;54.302;10.128;2022-12-07T09:48:30;5.13;;;1.63;;
15706;SDS011;7953;54.302;10.128;2022-12-07T09:51:03;1.97;;;1.53;;
15706;SDS011;7953;54.302;10.128;2022-12-07T09:53:42;6.33;;;1.47;;
15706;SDS011;7953;54.302;10.128;2022-12-07T09:56:13;4.43;;;1.50;;
15706;SDS011;7953;54.302;10.128;2022-12-07T09:58:41;5.40;;;1.50;;
15706;SDS011;7953;54.302;10.128;2022-12-07T10:01:11;2.90;;;1.50;;
15706;SDS011;7953;54.302;10.128;2022-12-07T10:03:48;6.03;;;1.47;;
15706;SDS011;7953;54.302;10.128;2022-12-07T10:06:17;5.40;;;1.53;;
15706;SDS011;7953;54.302;10.128;2022-12-07T10:08:47;3.73;;;1.80;;
15706;SDS011;7953;54.302;10.128;2022-12-07T10:11:14;3.67;;;1.20;;
15706;SDS011;7953;54.302;10.128;2022-12-07T10:13:42;3.87;;;1.60;;
15706;SDS011;7953;54.302;10.128;2022-12-07T10:16:27;3.27;;;1.53;;
15706;SDS011;7953;54.302;10.128;2022-12-07T10:22:01;5.23;;;1.40;;
15706;SDS011;7953;54.302;10.128;2022-12-07T10:24:31;5.13;;;1.27;;
15706;SDS011;7953;54.302;10.128;2022-12-07T10:26:58;3.07;;;1.53;;
15706;SDS011;7953;54.302;10.128;2022-12-07T10:31:59;2.27;;;1.30;;
15706;SDS011;7953;54.302;10.128;2022-12-07T10:34:28;4.17;;;1.70;;
15706;SDS011;7953;54.302;10.128;2022-12-07T10:39:45;8.83;;;1.43;;
15706;SDS011;7953;54.302;10.128;2022-12-07T10:42:17;2.77;;;1.00;;
15706;SDS011;7953;54.302;10.128;2022-12-07T10:44:45;1.77;;;1.10;;
15706;SDS011;7953;54.302;10.128;2022-12-07T10:47:25;3.10;;;1.03;;
15706;SDS011;7953;54.302;10.128;2022-12-07T10:52:52;4.57;;;1.30;;
15706;SDS011;7953;54.302;10.128;2022-12-07T10:55:44;5.53;;;1.53;;
15706;SDS011;7953;54.302;10.128;2022-12-07T10:58:28;3.93;;;1.70;;
15706;SDS011;7953;54.302;10.128;2022-12-07T11:01:04;5.33;;;2.47;;
15706;SDS011;7953;54.302;10.128;2022-12-07T11:03:45;6.53;;;1.63;;
15706;SDS011;7953;54.302;10.128;2022-12-07T11:06:23;8.97;;;2.07;;
15706;SDS011;7953;54.302;10.128;2022-12-07T11:09:03;3.97;;;1.83;;
15706;SDS011;7953;54.302;10.128;2022-12-07T11:11:44;3.23;;;1.53;;
15706;SDS011;7953;54.302;10.128;2022-12-07T11:14:22;2.93;;;1.47;;
15706;SDS011;7953;54.302;10.128;2022-12-07T11:16:55;3.27;;;1.27;;
15706;SDS011;7953;54.302;10.128;2022-12-07T11:19:32;2.57;;;1.17;;
15706;SDS011;7953;54.302;10.128;2022-12-07T11:22:12;5.33;;;1.40;;
15706;SDS011;7953;54.302;10.128;2022-12-07T11:24:44;4.03;;;1.23;;
15706;SDS011;7953;54.302;10.128;2022-12-07T11:27:22;3.67;;;1.00;;
15706;SDS011;7953;54.302;10.128;2022-12-07T11:30:00;3.37;;;1.47;;
15706;SDS011;7953;54.302;10.128;2022-12-07T11:32:49;5.00;;;1.47;;
15706;SDS011;7953;54.302;10.128;2022-12-07T11:35:24;5.20;;;1.10;;
15706;SDS011;7953;54.302;10.128;2022-12-07T11:38:01;3.17;;;0.90;;
15706;SDS011;7953;54.302;10.128;2022-12-07T11:40:35;5.03;;;1.10;;
15706;SDS011;7953;54.302;10.128;2022-12-07T11:43:06;2.33;;;1.00;;
15706;SDS011;7953;54.302;10.128;2022-12-07T11:45:41;1.73;;;0.83;;
15706;SDS011;7953;54.302;10.128;2022-12-07T11:48:10;4.73;;;1.57;;
15706;SDS011;7953;54.302;10.128;2022-12-07T11:50:43;4.87;;;1.23;;
15706;SDS011;7953;54.302;10.128;2022-12-07T11:53:14;2.53;;;0.87;;
15706;SDS011;7953;54.302;10.128;2022-12-07T11:55:47;3.83;;;0.90;;
15706;SDS011;7953;54.302;10.128;2022-12-07T11:58:23;6.73;;;1.60;;
15706;SDS011;7953;54.302;10.128;2022-12-07T12:01:07;7.63;;;2.10;;
15706;SDS011;7953;54.302;10.128;2022-12-07T12:03:41;2.60;;;1.00;;
15706;SDS011;7953;54.302;10.128;2022-12-07T12:06:11;4.00;;;1.80;;
15706;SDS011;7953;54.302;10.128;2022-12-07T12:08:38;8.93;;;1.03;;
15706;SDS011;7953;54.302;10.128;2022-12-07T12:11:13;6.80;;;1.47;;
15706;SDS011;7953;54.302;10.128;2022-12-07T12:14:08;1.77;;;0.93;;
15706;SDS011;7953;54.302;10.128;2022-12-07T12:19:41;3.20;;;1.10;;
15706;SDS011;7953;54.302;10.128;2022-12-07T12:22:12;2.43;;;1.13;;
15706;SDS011;7953;54.302;10.128;2022-12-07T12:24:43;1.07;;;0.80;;
15706;SDS011;7953;54.302;10.128;2022-12-07T12:27:18;2.63;;;0.80;;
15706;SDS011;7953;54.302;10.128;2022-12-07T12:29:53;4.53;;;1.00;;
15706;SDS011;7953;54.302;10.128;2022-12-07T12:32:22;2.10;;;0.70;;
15706;SDS011;7953;54.302;10.128;2022-12-07T12:34:57;3.63;;;1.20;;
15706;SDS011;7953;54.302;10.128;2022-12-07T12:37:38;3.87;;;1.40;;
15706;SDS011;7953;54.302;10.128;2022-12-07T12:43:26;1.80;;;1.00;;
15706;SDS011;7953;54.302;10.128;2022-12-07T12:55:28;2.43;;;1.33;;
15706;SDS011;7953;54.302;10.128;2022-12-07T12:58:31;3.00;;;1.13;;
15706;SDS011;7953;54.302;10.128;2022-12-07T13:04:21;2.27;;;1.40;;
15706;SDS011;7953;54.302;10.128;2022-12-07T13:06:51;1.27;;;0.80;;
15706;SDS011;7953;54.302;10.128;2022-12-07T13:09:20;4.53;;;1.10;;
15706;SDS011;7953;54.302;10.128;2022-12-07T13:11:49;2.73;;;0.80;;
15706;SDS011;7953;54.302;10.128;2022-12-07T13:14:41;5.50;;;0.90;;
15706;SDS011;7953;54.302;10.128;2022-12-07T13:20:47;1.40;;;0.90;;
15706;SDS011;7953;54.302;10.128;2022-12-07T13:23:29;3.27;;;1.37;;
15706;SDS011;7953;54.302;10.128;2022-12-07T13:26:13;3.17;;;1.00;;
15706;SDS011;7953;54.302;10.128;2022-12-07T13:28:42;2.97;;;0.90;;
15706;SDS011;7953;54.302;10.128;2022-12-07T13:31:15;4.93;;;1.40;;
15706;SDS011;7953;54.302;10.128;2022-12-07T13:33:56;3.67;;;1.00;;
15706;SDS011;7953;54.302;10.128;2022-12-07T13:36:25;4.07;;;1.33;;
15706;SDS011;7953;54.302;10.128;2022-12-07T13:38:57;0.80;;;0.70;;
15706;SDS011;7953;54.302;10.128;2022-12-07T13:41:25;2.20;;;0.90;;
15706;SDS011;7953;54.302;10.128;2022-12-07T13:43:54;2.30;;;1.10;;
15706;SDS011;7953;54.302;10.128;2022-12-07T13:46:31;3.13;;;1.20;;
15706;SDS011;7953;54.302;10.128;2022-12-07T13:49:14;3.03;;;0.90;;
15706;SDS011;7953;54.302;10.128;2022-12-07T13:51:47;2.80;;;1.00;;
15706;SDS011;7953;54.302;10.128;2022-12-07T13:54:15;2.63;;;1.30;;
15706;SDS011;7953;54.302;10.128;2022-12-07T13:56:43;1.10;;;1.00;;
15706;SDS011;7953;54.302;10.128;2022-12-07T13:59:13;7.80;;;1.10;;
15706;SDS011;7953;54.302;10.128;2022-12-07T14:01:42;2.97;;;1.17;;
15706;SDS011;7953;54.302;10.128;2022-12-07T14:04:31;5.47;;;1.20;;
15706;SDS011;7953;54.302;10.128;2022-12-07T14:07:01;2.57;;;0.70;;
15706;SDS011;7953;54.302;10.128;2022-12-07T14:09:53;4.13;;;1.20;;
15706;SDS011;7953;54.302;10.128;2022-12-07T14:12:21;1.37;;;0.97;;
15706;SDS011;7953;54.302;10.128;2022-12-07T14:14:49;4.60;;;1.27;;
15706;SDS011;7953;54.302;10.128;2022-12-07T14:17:17;8.67;;;1.80;;
15706;SDS011;7953;54.302;10.128;2022-12-07T14:19:48;1.87;;;1.07;;
15706;SDS011;7953;54.302;10.128;2022-12-07T14:22:20;2.53;;;0.97;;
15706;SDS011;7953;54.302;10.128;2022-12-07T14:24:58;2.67;;;1.53;;
15706;SDS011;7953;54.302;10.128;2022-12-07T14:27:29;3.83;;;1.27;;
15706;SDS011;7953;54.302;10.128;2022-12-07T14:29:59;2.57;;;1.00;;
15706;SDS011;7953;54.302;10.128;2022-12-07T14:32:27;5.10;;;1.40;;
15706;SDS011;7953;54.302;10.128;2022-12-07T14:34:56;4.00;;;1.37;;
15706;SDS011;7953;54.302;10.128;2022-12-07T14:37:29;4.50;;;1.43;;
15706;SDS011;7953;54.302;10.128;2022-12-07T14:39:56;2.27;;;1.30;;
15706;SDS011;7953;54.302;10.128;2022-12-07T14:42:24;3.23;;;1.47;;
15706;SDS011;7953;54.302;10.128;2022-12-07T14:44:54;3.03;;;1.70;;
15706;SDS011;7953;54.302;10.128;2022-12-07T14:47:21;3.77;;;1.33;;
15706;SDS011;7953;54.302;10.128;2022-12-07T14:49:48;2.80;;;1.60;;
15706;SDS011;7953;54.302;10.128;2022-12-07T14:52:16;2.30;;;1.33;;
15706;SDS011;7953;54.302;10.128;2022-12-07T14:54:47;8.37;;;1.50;;
15706;SDS011;7953;54.302;10.128;2022-12-07T14:57:14;4.63;;;1.43;;
15706;SDS011;7953;54.302;10.128;2022-12-07T14:59:41;3.37;;;1.43;;
15706;SDS011;7953;54.302;10.128;2022-12-07T15:02:09;2.83;;;1.57;;
15706;SDS011;7953;54.302;10.128;2022-12-07T15:04:37;4.33;;;1.57;;
15706;SDS011;7953;54.302;10.128;2022-12-07T15:07:05;2.43;;;1.33;;
15706;SDS011;7953;54.302;10.128;2022-12-07T15:09:36;3.27;;;1.33;;
15706;SDS011;7953;54.302;10.128;2022-12-07T15:12:04;2.27;;;1.30;;
15706;SDS011;7953;54.302;10.128;2022-12-07T15:14:31;4.73;;;1.47;;
15706;SDS011;7953;54.302;10.128;2022-12-07T15:16:58;2.57;;;1.70;;
15706;SDS011;7953;54.302;10.128;2022-12-07T15:19:25;4.27;;;2.00;;
15706;SDS011;7953;54.302;10.128;2022-12-07T15:21:52;3.60;;;1.47;;
15706;SDS011;7953;54.302;10.128;2022-12-07T15:24:20;4.27;;;1.50;;
15706;SDS011;7953;54.302;10.128;2022-12-07T15:26:49;2.67;;;1.57;;
15706;SDS011;7953;54.302;10.128;2022-12-07T15:29:17;2.07;;;1.20;;
15706;SDS011;7953;54.302;10.128;2022-12-07T15:31:44;6.40;;;1.80;;
15706;SDS011;7953;54.302;10.128;2022-12-07T15:34:11;2.90;;;1.70;;
15706;SDS011;7953;54.302;10.128;2022-12-07T15:36:37;2.70;;;1.93;;
15706;SDS011;7953;54.302;10.128;2022-12-07T15:39:04;3.80;;;1.67;;
15706;SDS011;7953;54.302;10.128;2022-12-07T15:41:31;2.53;;;1.50;;
15706;SDS011;7953;54.302;10.128;2022-12-07T15:43:58;3.17;;;2.40;;
15706;SDS011;7953;54.302;10.128;2022-12-07T15:46:44;3.63;;;1.60;;
15706;SDS011;7953;54.302;10.128;2022-12-07T15:49:11;4.23;;;2.07;;
15706;SDS011;7953;54.302;10.128;2022-12-07T15:51:39;2.70;;;1.77;;